createdAt,value
2023-04-15T00:01:18.885Z,99055.59
2023-04-15T00:03:31.717Z,99055.66
2023-04-15T00:05:45.105Z,99051.15
2023-04-15T00:07:58.924Z,99050.34
2023-04-15T00:10:11.440Z,99042.72
2023-04-15T00:12:24.868Z,99039.69
2023-04-15T00:14:37.443Z,99036.14
2023-04-15T00:16:55.527Z,99031.66
2023-04-15T00:19:08.404Z,99032.39
2023-04-15T00:21:21.352Z,99035.23
2023-04-15T00:23:33.852Z,99032.98
2023-04-15T00:25:47.184Z,99038.38
2023-04-15T00:27:59.854Z,99037.30
2023-04-15T00:30:13.143Z,99037.20
2023-04-15T00:32:25.820Z,99039.95
2023-04-15T00:34:38.394Z,99043.35
2023-04-15T00:36:52.483Z,99042.65
2023-04-15T00:39:05.372Z,99039.19
2023-04-15T00:41:19.388Z,99040.56
2023-04-15T00:43:32.066Z,99037.50
2023-04-15T00:45:44.660Z,99036.08
2023-04-15T00:47:57.301Z,99037.33
2023-04-15T00:50:11.010Z,99034.29
2023-04-15T00:52:23.559Z,99037.59
2023-04-15T00:54:36.414Z,99041.39
2023-04-15T00:56:48.986Z,99040.73
2023-04-15T00:59:02.239Z,99040.41
2023-04-15T01:01:15.885Z,99045.22
2023-04-15T01:03:30.109Z,99043.98
2023-04-15T01:05:42.796Z,99043.52
2023-04-15T01:07:55.381Z,99049.94
2023-04-15T01:10:08.634Z,99045.22
2023-04-15T01:12:21.448Z,99046.64
2023-04-15T01:14:34.296Z,99044.41
2023-04-15T01:16:46.952Z,99044.33
2023-04-15T01:19:00.133Z,99044.83
2023-04-15T01:21:13.366Z,99039.71
2023-04-15T01:23:26.351Z,99042.70
2023-04-15T01:25:39.810Z,99043.49
2023-04-15T01:27:52.917Z,99041.75
2023-04-15T01:30:07.238Z,99035.50
2023-04-15T01:32:19.920Z,99035.33
2023-04-15T01:34:35.032Z,99040.33
2023-04-15T01:36:48.734Z,99040.98
2023-04-15T01:39:01.722Z,99040.98
2023-04-15T01:41:14.692Z,99043.73
2023-04-15T01:43:28.125Z,99044.64
2023-04-15T01:45:40.818Z,99045.82
2023-04-15T01:47:54.069Z,99046.66
2023-04-15T01:50:07.070Z,99044.92
2023-04-15T01:52:19.736Z,99044.86
2023-04-15T01:54:32.370Z,99044.56
2023-04-15T01:56:44.977Z,99044.96
2023-04-15T01:58:57.532Z,99044.09
2023-04-15T02:01:11.394Z,99046.95
2023-04-15T02:03:25.245Z,99048.52
2023-04-15T02:05:37.935Z,99047.88
2023-04-15T02:07:50.517Z,99048.52
2023-04-15T02:10:04.047Z,99050.73
2023-04-15T02:12:16.640Z,99050.69
2023-04-15T02:14:29.125Z,99051.71
2023-04-15T02:16:41.686Z,99054.95
2023-04-15T02:18:54.239Z,99056.21
2023-04-15T02:21:07.298Z,99056.88
2023-04-15T02:23:19.912Z,99061.34
2023-04-15T02:25:32.483Z,99059.17
2023-04-15T02:27:45.043Z,99052.73
2023-04-15T02:29:57.603Z,99054.70
2023-04-15T02:32:11.702Z,99057.83
2023-04-15T02:34:24.331Z,99062.20
2023-04-15T02:36:37.169Z,99061.84
2023-04-15T02:38:49.723Z,99060.17
2023-04-15T02:41:02.408Z,99061.23
2023-04-15T02:43:14.908Z,99062.69
2023-04-15T02:45:28.053Z,99064.19
2023-04-15T02:47:41.621Z,99063.31
2023-04-15T02:49:54.185Z,99066.22
2023-04-15T02:52:07.039Z,99065.69
2023-04-15T02:54:20.820Z,99066.84
2023-04-15T02:56:33.382Z,99068.42
2023-04-15T02:58:46.059Z,99071.72
2023-04-15T03:00:58.637Z,99072.02
2023-04-15T03:03:12.018Z,99069.65
2023-04-15T03:05:25.475Z,99067.65
2023-04-15T03:07:38.022Z,99066.23
2023-04-15T03:09:50.540Z,99070.13
2023-04-15T03:12:03.244Z,99075.77
2023-04-15T03:14:16.079Z,99081.45
2023-04-15T03:16:28.700Z,99085.33
2023-04-15T03:18:41.264Z,99092.42
2023-04-15T03:20:53.827Z,99096.54
2023-04-15T03:23:06.485Z,99101.08
2023-04-15T03:25:19.074Z,99105.46
2023-04-15T03:27:32.083Z,99113.05
2023-04-15T03:29:44.667Z,99118.44
2023-04-15T03:31:57.244Z,99113.77
2023-04-15T03:34:09.972Z,99110.96
2023-04-15T03:36:22.643Z,99113.05
2023-04-15T03:38:35.358Z,99119.34
2023-04-15T03:40:47.961Z,99118.63
2023-04-15T03:43:00.495Z,99117.29
2023-04-15T03:45:13.126Z,99129.27
2023-04-15T03:47:25.725Z,99132.67
2023-04-15T03:49:38.375Z,99131.56
2023-04-15T03:51:51.149Z,99137.70
2023-04-15T03:54:03.743Z,99141.13
2023-04-15T03:56:16.438Z,99149.27
2023-04-15T03:58:29.042Z,99149.41
2023-04-15T04:00:42.465Z,99148.34
2023-04-15T04:02:55.226Z,99153.67
2023-04-15T04:05:08.309Z,99158.30
2023-04-15T04:07:20.885Z,99161.57
2023-04-15T04:09:33.423Z,99163.10
2023-04-15T04:11:46.175Z,99165.70
2023-04-15T04:13:59.039Z,99172.82
2023-04-15T04:16:11.710Z,99179.01
2023-04-15T04:18:24.301Z,99185.39
2023-04-15T04:20:36.943Z,99181.09
2023-04-15T04:22:50.634Z,99183.25
2023-04-15T04:25:03.247Z,99181.91
2023-04-15T04:27:16.156Z,99178.79
2023-04-15T04:29:28.706Z,99187.69
2023-04-15T04:31:41.594Z,99195.05
2023-04-15T04:33:54.172Z,99198.13
2023-04-15T04:36:07.116Z,99203.40
2023-04-15T04:38:19.631Z,99208.50
2023-04-15T04:40:32.289Z,99217.58
2023-04-15T04:42:44.954Z,99220.75
2023-04-15T04:44:57.522Z,99226.92
2023-04-15T04:47:10.427Z,99235.95
2023-04-15T04:49:23.046Z,99237.23
2023-04-15T04:51:36.049Z,99236.58
2023-04-15T04:53:48.696Z,99239.85
2023-04-15T04:56:01.621Z,99238.52
2023-04-15T04:58:14.224Z,99237.55
2023-04-15T05:00:26.807Z,99238.90
2023-04-15T05:02:39.691Z,99236.39
2023-04-15T05:04:54.395Z,99236.60
2023-04-15T05:07:06.983Z,99241.59
2023-04-15T05:09:19.498Z,99242.73
2023-04-15T05:11:32.014Z,99241.63
2023-04-15T05:13:44.534Z,99244.70
2023-04-15T05:15:57.232Z,99243.36
2023-04-15T05:18:09.960Z,99247.10
2023-04-15T05:20:22.521Z,99249.23
2023-04-15T05:22:35.145Z,99251.19
2023-04-15T05:24:47.862Z,99256.34
2023-04-15T05:27:01.547Z,99262.59
2023-04-15T05:29:14.177Z,99262.27
2023-04-15T05:31:26.779Z,99265.45
2023-04-15T05:33:40.459Z,99265.27
2023-04-15T05:35:53.010Z,99267.75
2023-04-15T05:38:05.494Z,99268.11
2023-04-15T05:40:18.759Z,99273.84
2023-04-15T05:42:31.437Z,99278.54
2023-04-15T05:44:44.035Z,99276.01
2023-04-15T05:46:56.883Z,99281.32
2023-04-15T05:49:09.433Z,99287.59
2023-04-15T05:51:22.108Z,99291.27
2023-04-15T05:53:37.390Z,99290.75
2023-04-15T05:55:49.979Z,99296.29
2023-04-15T05:58:03.678Z,99302.95
2023-04-15T06:00:16.464Z,99306.89
2023-04-15T06:02:29.157Z,99311.41
2023-04-15T06:04:42.707Z,99310.73
2023-04-15T06:06:55.306Z,99312.70
2023-04-15T06:09:07.825Z,99314.17
2023-04-15T06:11:21.954Z,99317.02
2023-04-15T06:13:35.035Z,99312.84
2023-04-15T06:15:47.707Z,99320.33
2023-04-15T06:18:00.324Z,99326.86
2023-04-15T06:20:13.007Z,99329.58
2023-04-15T06:22:25.612Z,99328.23
2023-04-15T06:24:38.251Z,99333.77
2023-04-15T06:26:51.028Z,99331.72
2023-04-15T06:29:04.172Z,99335.81
2023-04-15T06:31:16.948Z,99338.48
2023-04-15T06:33:29.614Z,99340.14
2023-04-15T06:35:42.139Z,99340.46
2023-04-15T06:37:54.651Z,99342.41
2023-04-15T06:40:08.661Z,99349.81
2023-04-15T06:42:21.651Z,99351.28
2023-04-15T06:44:34.228Z,99346.72
2023-04-15T06:46:46.758Z,99344.70
2023-04-15T06:48:59.379Z,99343.15
2023-04-15T06:51:12.066Z,99346.30
2023-04-15T06:53:27.919Z,99344.45
2023-04-15T06:55:41.407Z,99351.29
2023-04-15T06:57:53.882Z,99356.23
2023-04-15T07:00:07.508Z,99356.02
2023-04-15T07:02:20.660Z,99352.08
2023-04-15T07:04:33.610Z,99349.12
2023-04-15T07:06:46.233Z,99353.13
2023-04-15T07:08:59.473Z,99361.00
2023-04-15T07:11:12.257Z,99367.73
2023-04-15T07:13:24.838Z,99363.98
2023-04-15T07:15:37.444Z,99371.80
2023-04-15T07:17:50.019Z,99381.87
2023-04-15T07:20:03.162Z,99390.79
2023-04-15T07:22:15.967Z,99389.48
2023-04-15T07:24:28.636Z,99386.52
2023-04-15T07:26:41.203Z,99385.77
2023-04-15T07:28:53.726Z,99386.80
2023-04-15T07:31:06.378Z,99386.54
2023-04-15T07:33:19.333Z,99389.01
2023-04-15T07:35:31.877Z,99387.66
2023-04-15T07:37:44.508Z,99393.27
2023-04-15T07:39:57.388Z,99394.60
2023-04-15T07:42:10.407Z,99395.91
2023-04-15T07:44:23.078Z,99391.11
2023-04-15T07:46:36.204Z,99391.86
2023-04-15T07:48:48.899Z,99389.66
2023-04-15T07:51:02.758Z,99391.30
2023-04-15T07:53:15.418Z,99390.59
2023-04-15T07:55:28.364Z,99392.04
2023-04-15T07:57:41.064Z,99388.02
2023-04-15T07:59:53.581Z,99386.85
2023-04-15T08:02:06.204Z,99386.54
2023-04-15T08:04:19.011Z,99387.09
2023-04-15T08:06:31.623Z,99393.52
2023-04-15T08:08:44.315Z,99392.31
2023-04-15T08:10:58.864Z,99391.73
2023-04-15T08:13:11.755Z,99396.34
2023-04-15T08:15:24.370Z,99402.27
2023-04-15T08:17:36.929Z,99407.39
2023-04-15T08:19:49.523Z,99411.77
2023-04-15T08:22:02.555Z,99404.95
2023-04-15T08:24:15.637Z,99402.79
2023-04-15T08:26:28.309Z,99409.89
2023-04-15T08:28:42.369Z,99410.80
2023-04-15T08:30:54.932Z,99415.67
2023-04-15T08:33:07.484Z,99418.81
2023-04-15T08:35:19.978Z,99418.88
2023-04-15T08:37:32.561Z,99424.22
2023-04-15T08:39:46.125Z,99418.69
2023-04-15T08:42:03.512Z,99424.49
2023-04-15T08:44:16.218Z,99427.04
2023-04-15T08:46:30.061Z,99428.86
2023-04-15T08:48:42.978Z,99435.19
2023-04-15T08:50:55.734Z,99436.55
2023-04-15T08:53:09.395Z,99436.74
2023-04-15T08:55:22.807Z,99438.76
2023-04-15T08:57:36.417Z,99433.86
2023-04-15T08:59:49.512Z,99433.39
2023-04-15T09:02:03.642Z,99439.40
2023-04-15T09:04:17.145Z,99444.65
2023-04-15T09:06:29.865Z,99441.43
2023-04-15T09:08:42.419Z,99433.05
2023-04-15T09:10:55.177Z,99442.41
2023-04-15T09:13:09.338Z,99448.23
2023-04-15T09:15:22.425Z,99447.11
2023-04-15T09:17:35.125Z,99433.11
2023-04-15T09:19:47.777Z,99436.55
2023-04-15T09:22:00.449Z,99439.27
2023-04-15T09:24:13.055Z,99436.93
2023-04-15T09:26:37.347Z,99435.42
2023-04-15T09:28:49.949Z,99437.14
2023-04-15T09:31:02.743Z,99436.58
2023-04-15T09:33:15.901Z,99439.05
2023-04-15T09:35:28.779Z,99442.86
2023-04-15T09:37:41.558Z,99433.82
2023-04-15T09:39:54.162Z,99436.61
2023-04-15T09:42:07.537Z,99439.08
2023-04-15T09:44:24.736Z,99447.38
2023-04-15T09:46:42.321Z,99447.74
2023-04-15T09:49:11.468Z,99459.02
2023-04-15T09:51:35.062Z,99451.14
2023-04-15T09:53:54.549Z,99452.53
2023-04-15T09:56:08.857Z,99451.82
2023-04-15T09:58:24.214Z,99454.31
2023-04-15T10:00:37.859Z,99462.85
2023-04-15T10:02:51.952Z,99463.67
2023-04-15T10:05:04.854Z,99465.55
2023-04-15T10:07:20.468Z,99465.45
2023-04-15T10:09:34.753Z,99463.50
2023-04-15T10:11:49.833Z,99464.08
2023-04-15T10:14:03.156Z,99460.42
2023-04-15T10:16:19.261Z,99463.03
2023-04-15T10:18:35.609Z,99460.59
2023-04-15T10:20:49.064Z,99462.79
2023-04-15T10:23:02.177Z,99462.17
2023-04-15T10:25:15.879Z,99460.40
2023-04-15T10:27:29.109Z,99461.67
2023-04-15T10:29:42.651Z,99458.85
2023-04-15T10:31:56.724Z,99457.72
2023-04-15T10:34:10.819Z,99461.16
2023-04-15T10:36:23.650Z,99459.56
2023-04-15T10:38:43.317Z,99459.34
2023-04-15T10:41:23.741Z,99452.91
2023-04-15T10:43:37.339Z,99458.91
2023-04-15T10:45:49.909Z,99463.38
2023-04-15T10:48:04.625Z,99459.95
2023-04-15T10:50:19.081Z,99461.54
2023-04-15T10:52:31.651Z,99460.20
2023-04-15T10:54:45.198Z,99460.27
2023-04-15T10:57:03.647Z,99462.70
2023-04-15T10:59:16.423Z,99464.70
2023-04-15T11:01:56.554Z,99467.61
2023-04-15T11:04:09.514Z,99475.20
2023-04-15T11:06:45.775Z,99479.77
2023-04-15T11:09:02.546Z,99483.98
2023-04-15T11:11:15.093Z,99485.42
2023-04-15T11:13:29.216Z,99483.92
2023-04-15T11:15:42.880Z,99485.70
2023-04-15T11:17:56.918Z,99485.13
2023-04-15T11:20:10.138Z,99485.56
2023-04-15T11:22:22.881Z,99487.78
2023-04-15T11:24:36.465Z,99485.89
2023-04-15T11:26:49.055Z,99488.38
2023-04-15T11:29:02.269Z,99482.86
2023-04-15T11:31:17.639Z,99484.55
2023-04-15T11:33:30.897Z,99486.65
2023-04-15T11:35:44.024Z,99490.14
2023-04-15T11:37:57.239Z,99492.79
2023-04-15T11:40:10.375Z,99496.67
2023-04-15T11:42:22.968Z,99498.27
2023-04-15T11:44:35.637Z,99501.73
2023-04-15T11:46:48.234Z,99501.27
2023-04-15T11:49:01.652Z,99508.29
2023-04-15T11:51:14.997Z,99509.34
2023-04-15T11:53:46.000Z,99515.20
2023-04-15T11:55:58.670Z,99518.23
2023-04-15T11:58:16.344Z,99518.41
2023-04-15T12:00:29.243Z,99522.30
2023-04-15T12:02:41.985Z,99521.20
2023-04-15T12:05:04.282Z,99519.20
2023-04-15T12:07:16.898Z,99521.65
2023-04-15T12:09:31.996Z,99522.23
2023-04-15T12:11:48.856Z,99526.04
2023-04-15T12:14:09.020Z,99529.14
2023-04-15T12:16:22.950Z,99529.56
2023-04-15T12:18:38.516Z,99534.27
2023-04-15T12:20:51.099Z,99542.52
2023-04-15T12:23:07.043Z,99539.45
2023-04-15T12:25:19.675Z,99543.48
2023-04-15T12:27:32.385Z,99544.42
2023-04-15T12:29:45.067Z,99544.52
2023-04-15T12:32:03.849Z,99546.52
2023-04-15T12:34:17.209Z,99544.65
2023-04-15T12:36:36.119Z,99545.79
2023-04-15T12:38:48.677Z,99545.89
2023-04-15T12:41:01.216Z,99542.20
2023-04-15T12:43:13.750Z,99542.21
2023-04-15T12:45:27.127Z,99545.62
2023-04-15T12:47:41.070Z,99542.45
2023-04-15T12:49:53.695Z,99548.34
2023-04-15T12:52:06.418Z,99543.05
2023-04-15T12:54:19.214Z,99542.88
2023-04-15T12:56:31.781Z,99540.00
2023-04-15T12:58:44.345Z,99540.16
2023-04-15T13:00:57.303Z,99545.02
2023-04-15T13:03:09.907Z,99546.23
2023-04-15T13:05:22.564Z,99545.64
2023-04-15T13:07:35.115Z,99547.57
2023-04-15T13:09:47.664Z,99553.02
2023-04-15T13:12:00.917Z,99545.10
2023-04-15T13:14:13.542Z,99549.30
2023-04-15T13:16:26.249Z,99545.69
2023-04-15T13:18:38.907Z,99553.45
2023-04-15T13:20:51.440Z,99548.59
2023-04-15T13:23:04.033Z,99546.73
2023-04-15T13:25:16.564Z,99549.79
2023-04-15T13:27:29.113Z,99543.69
2023-04-15T13:29:41.679Z,99548.57
2023-04-15T13:31:54.273Z,99551.37
2023-04-15T13:34:07.109Z,99553.61
2023-04-15T13:36:19.837Z,99556.32
2023-04-15T13:38:32.364Z,99555.69
2023-04-15T13:40:45.035Z,99554.05
2023-04-15T13:42:58.517Z,99553.65
2023-04-15T13:45:11.397Z,99555.27
2023-04-15T13:47:23.985Z,99552.59
2023-04-15T13:49:36.560Z,99547.44
2023-04-15T13:51:49.065Z,99546.28
2023-04-15T13:54:01.974Z,99547.25
2023-04-15T13:56:14.783Z,99546.52
2023-04-15T13:58:27.386Z,99545.52
2023-04-15T14:00:40.456Z,99546.45
2023-04-15T14:02:53.256Z,99547.11
2023-04-15T14:05:06.438Z,99547.86
2023-04-15T14:07:19.091Z,99550.19
2023-04-15T14:09:31.818Z,99551.67
2023-04-15T14:11:44.399Z,99545.05
2023-04-15T14:13:56.944Z,99545.08
2023-04-15T14:16:09.878Z,99543.95
2023-04-15T14:18:22.493Z,99547.83
2023-04-15T14:20:35.077Z,99552.49
2023-04-15T14:22:47.571Z,99554.36
2023-04-15T14:25:00.203Z,99553.55
2023-04-15T14:27:12.883Z,99555.63
2023-04-15T14:29:25.443Z,99557.10
2023-04-15T14:31:38.492Z,99553.91
2023-04-15T14:33:53.696Z,99556.13
2023-04-15T14:36:07.450Z,99553.30
2023-04-15T14:38:22.662Z,99563.57
2023-04-15T14:40:35.317Z,99572.20
2023-04-15T14:42:47.898Z,99573.86
2023-04-15T14:45:00.529Z,99577.64
2023-04-15T14:47:13.475Z,99583.65
2023-04-15T14:49:26.203Z,99587.61
2023-04-15T14:51:40.739Z,99585.78
2023-04-15T14:53:54.328Z,99589.09
2023-04-15T14:56:07.250Z,99592.38
2023-04-15T14:58:19.819Z,99591.88
2023-04-15T15:00:32.430Z,99597.36
2023-04-15T15:02:47.356Z,99600.88
2023-04-15T15:05:01.798Z,99599.98
2023-04-15T15:07:14.516Z,99604.35
2023-04-15T15:09:27.342Z,99605.45
2023-04-15T15:11:39.933Z,99608.63
2023-04-15T15:13:52.454Z,99613.55
2023-04-15T15:16:05.364Z,99616.80
2023-04-15T15:18:19.143Z,99621.11
2023-04-15T15:20:32.964Z,99623.75
2023-04-15T15:22:45.867Z,99626.14
2023-04-15T15:24:59.194Z,99627.11
2023-04-15T15:27:11.955Z,99627.41
2023-04-15T15:29:24.519Z,99626.89
2023-04-15T15:31:37.189Z,99625.98
2023-04-15T15:33:49.966Z,99625.90
2023-04-15T15:36:04.431Z,99631.58
2023-04-15T15:38:17.064Z,99630.05
2023-04-15T15:40:29.585Z,99630.64
2023-04-15T15:42:42.824Z,99634.81
2023-04-15T15:44:55.417Z,99634.83
2023-04-15T15:47:08.335Z,99634.73
2023-04-15T15:49:20.996Z,99640.19
2023-04-15T15:51:33.666Z,99642.57
2023-04-15T15:53:46.381Z,99644.35
2023-04-15T15:55:58.980Z,99644.96
2023-04-15T15:58:11.571Z,99650.15
2023-04-15T16:00:24.258Z,99653.67
2023-04-15T16:03:04.345Z,99652.45
2023-04-15T16:05:11.756Z,99654.83
2023-04-15T16:07:24.740Z,99658.47
2023-04-15T16:09:37.479Z,99658.02
2023-04-15T16:11:50.023Z,99657.17
2023-04-15T16:14:02.603Z,99658.64
2023-04-15T16:16:15.518Z,99661.89
2023-04-15T16:18:28.112Z,99661.77
2023-04-15T16:20:40.685Z,99661.79
2023-04-15T16:22:53.249Z,99664.41
2023-04-15T16:25:06.231Z,99667.06
2023-04-15T16:27:18.860Z,99673.94
2023-04-15T16:29:31.384Z,99671.54
2023-04-15T16:31:46.926Z,99675.20
2023-04-15T16:33:59.524Z,99677.70
2023-04-15T16:36:12.226Z,99677.00
2023-04-15T16:38:24.818Z,99681.77
2023-04-15T16:40:37.952Z,99686.27
2023-04-15T16:42:51.029Z,99687.27
2023-04-15T16:45:03.802Z,99690.95
2023-04-15T16:47:16.371Z,99692.98
2023-04-15T16:49:31.726Z,99693.98
2023-04-15T16:51:44.327Z,99695.54
2023-04-15T16:53:57.100Z,99694.62
2023-04-15T16:56:09.626Z,99700.15
2023-04-15T16:58:22.235Z,99702.24
2023-04-15T17:00:36.649Z,99704.81
2023-04-15T17:02:49.323Z,99706.63
2023-04-15T17:05:01.967Z,99713.69
2023-04-15T17:07:14.535Z,99714.13
2023-04-15T17:09:27.061Z,99716.23
2023-04-15T17:11:40.569Z,99720.11
2023-04-15T17:13:53.174Z,99726.25
2023-04-15T17:16:05.968Z,99731.83
2023-04-15T17:18:18.469Z,99733.73
2023-04-15T17:20:31.077Z,99736.44
2023-04-15T17:22:43.790Z,99742.08
2023-04-15T17:24:56.280Z,99743.09
2023-04-15T17:27:09.168Z,99748.16
2023-04-15T17:29:21.818Z,99753.70
2023-04-15T17:31:34.521Z,99757.94
2023-04-15T17:34:00.362Z,99759.19
2023-04-15T17:36:19.633Z,99762.81
2023-04-15T17:38:32.139Z,99766.90
2023-04-15T17:40:44.714Z,99765.12
2023-04-15T17:42:58.405Z,99772.17
2023-04-15T17:45:11.418Z,99776.45
2023-04-15T17:47:23.957Z,99778.95
2023-04-15T17:49:37.828Z,99781.99
2023-04-15T17:51:50.614Z,99785.10
2023-04-15T17:54:03.612Z,99789.92
2023-04-15T17:56:16.627Z,99793.09
2023-04-15T17:58:30.103Z,99796.14
2023-04-15T18:00:42.653Z,99801.58
2023-04-15T18:02:55.462Z,99816.91
2023-04-15T18:05:08.718Z,99825.08
2023-04-15T18:07:21.384Z,99829.48
2023-04-15T18:09:33.968Z,99835.80
2023-04-15T18:11:48.361Z,99842.14
2023-04-15T18:14:03.717Z,99847.67
2023-04-15T18:16:16.492Z,99849.90
2023-04-15T18:18:29.066Z,99853.29
2023-04-15T18:20:41.624Z,99854.50
2023-04-15T18:22:54.299Z,99857.30
2023-04-15T18:25:07.778Z,99860.79
2023-04-15T18:27:20.727Z,99868.36
2023-04-15T18:29:34.122Z,99874.19
2023-04-15T18:31:46.800Z,99877.00
2023-04-15T18:33:59.440Z,99879.52
2023-04-15T18:36:12.038Z,99882.39
2023-04-15T18:38:24.647Z,99881.14
2023-04-15T18:40:37.147Z,99881.33
2023-04-15T18:42:49.842Z,99881.25
2023-04-15T18:45:02.393Z,99883.02
2023-04-15T18:47:15.654Z,99882.98
2023-04-15T18:49:28.125Z,99885.91
2023-04-15T18:51:41.604Z,99889.08
2023-04-15T18:53:54.253Z,99890.69
2023-04-15T18:56:07.036Z,99891.63
2023-04-15T18:58:19.609Z,99892.59
2023-04-15T19:00:32.157Z,99894.27
2023-04-15T19:02:45.017Z,99895.36
2023-04-15T19:04:57.726Z,99897.05
2023-04-15T19:07:10.384Z,99901.48
2023-04-15T19:09:22.936Z,99906.45
2023-04-15T19:11:35.532Z,99907.30
2023-04-15T19:13:48.188Z,99910.80
2023-04-15T19:16:00.774Z,99912.79
2023-04-15T19:18:13.359Z,99919.33
2023-04-15T19:20:26.346Z,99921.21
2023-04-15T19:22:39.043Z,99924.59
2023-04-15T19:24:52.102Z,99924.86
2023-04-15T19:27:04.641Z,99928.55
2023-04-15T19:29:17.563Z,99930.27
2023-04-15T19:31:30.197Z,99931.64
2023-04-15T19:33:42.726Z,99935.91
2023-04-15T19:35:55.297Z,99935.61
2023-04-15T19:38:08.156Z,99939.56
2023-04-15T19:40:20.817Z,99936.59
2023-04-15T19:42:33.439Z,99936.28
2023-04-15T19:44:45.991Z,99938.90
2023-04-15T19:46:58.649Z,99942.64
2023-04-15T19:49:11.410Z,99946.89
2023-04-15T19:51:24.933Z,99949.36
2023-04-15T19:53:37.629Z,99950.44
2023-04-15T19:55:50.364Z,99953.89
2023-04-15T19:58:02.959Z,99956.83
2023-04-15T20:00:15.664Z,99957.36
2023-04-15T20:02:29.188Z,99959.74
2023-04-15T20:04:42.043Z,99958.27
2023-04-15T20:06:55.653Z,99959.46
2023-04-15T20:09:10.936Z,99959.25
2023-04-15T20:12:47.418Z,99961.04
2023-04-15T20:14:01.514Z,99963.20
2023-04-15T20:16:14.113Z,99964.17
2023-04-15T20:18:26.735Z,99967.98
2023-04-15T20:20:39.705Z,99970.23
2023-04-15T20:22:53.172Z,99970.14
2023-04-15T20:25:06.418Z,99976.18
2023-04-15T20:27:20.456Z,99982.05
2023-04-15T20:29:33.073Z,99982.92
2023-04-15T20:31:45.687Z,99984.14
2023-04-15T20:33:58.323Z,99985.85
2023-04-15T20:36:10.931Z,99984.36
2023-04-15T20:38:23.462Z,99986.62
2023-04-15T20:40:36.370Z,99989.33
2023-04-15T20:42:49.091Z,99987.55
2023-04-15T20:45:02.281Z,99990.24
2023-04-15T20:47:14.918Z,99990.97
2023-04-15T20:49:27.529Z,99988.20
2023-04-15T20:51:40.124Z,99993.38
2023-04-15T20:53:52.862Z,99994.36
2023-04-15T20:56:05.596Z,99994.95
2023-04-15T20:58:18.114Z,100000.70
2023-04-15T21:00:31.932Z,100005.30
2023-04-15T21:02:44.658Z,100004.23
2023-04-15T21:04:59.329Z,100003.21
2023-04-15T21:07:12.056Z,100007.07
2023-04-15T21:09:25.003Z,100014.38
2023-04-15T21:13:53.246Z,100020.13
2023-04-15T21:16:06.149Z,100021.11
2023-04-15T21:18:19.046Z,100021.95
2023-04-15T21:20:31.608Z,100022.30
2023-04-15T21:22:44.768Z,100024.40
2023-04-15T21:24:57.474Z,100025.21
2023-04-15T21:27:10.130Z,100023.05
2023-04-15T21:29:23.396Z,100025.77
2023-04-15T21:31:36.009Z,100025.70
2023-04-15T21:33:48.831Z,100024.47
2023-04-15T21:36:01.540Z,100030.14
2023-04-15T21:38:14.467Z,100033.95
2023-04-15T21:40:27.004Z,100036.91
2023-04-15T21:42:39.509Z,100039.70
2023-04-15T21:44:52.015Z,100041.52
2023-04-15T21:47:04.582Z,100044.84
2023-04-15T21:49:17.894Z,100040.78
2023-04-15T21:51:31.609Z,100041.27
2023-04-15T21:53:44.430Z,100038.52
2023-04-15T21:55:57.110Z,100042.14
2023-04-15T21:58:09.687Z,100043.14
2023-04-15T22:00:23.701Z,100043.89
2023-04-15T22:02:38.273Z,100052.05
2023-04-15T22:04:51.132Z,100054.90
2023-04-15T22:07:03.750Z,100060.88
2023-04-15T22:09:16.565Z,100060.60
2023-04-15T22:11:30.802Z,100061.48
2023-04-15T22:13:43.310Z,100064.59
2023-04-15T22:15:55.867Z,100065.10
2023-04-15T22:18:08.451Z,100073.78
2023-04-15T22:20:21.275Z,100074.30
2023-04-15T22:22:43.630Z,100076.20
2023-04-15T22:24:57.319Z,100076.98
2023-04-15T22:27:10.249Z,100078.23
2023-04-15T22:29:22.859Z,100078.75
2023-04-15T22:31:35.750Z,100081.17
2023-04-15T22:33:48.415Z,100084.07
2023-04-15T22:36:01.155Z,100084.38
2023-04-15T22:38:13.748Z,100083.61
2023-04-15T22:40:26.414Z,100085.83
2023-04-15T22:42:38.964Z,100091.85
2023-04-15T22:44:51.525Z,100095.25
2023-04-15T22:47:04.070Z,100097.92
2023-04-15T22:49:16.735Z,100100.05
2023-04-15T22:51:29.344Z,100098.58
2023-04-15T22:53:41.939Z,100100.40
2023-04-15T22:55:54.682Z,100105.83
2023-04-15T22:58:07.232Z,100110.61
2023-04-15T23:00:19.860Z,100111.65
2023-04-15T23:02:33.389Z,100115.73
2023-04-15T23:04:46.258Z,100116.70
2023-04-15T23:06:58.901Z,100118.36
2023-04-15T23:09:11.814Z,100118.64
2023-04-15T23:11:24.759Z,100123.55
2023-04-15T23:13:37.337Z,100126.56
2023-04-15T23:15:49.896Z,100127.02
2023-04-15T23:18:02.693Z,100121.52
2023-04-15T23:20:16.338Z,100124.36
2023-04-15T23:22:28.937Z,100119.58
2023-04-15T23:24:41.498Z,100117.66
2023-04-15T23:26:55.236Z,100123.37
2023-04-15T23:29:09.387Z,100122.58
2023-04-15T23:31:22.251Z,100125.29
2023-04-15T23:33:34.926Z,100130.02
2023-04-15T23:35:47.443Z,100130.29
2023-04-15T23:38:00.071Z,100127.07
2023-04-15T23:40:13.686Z,100124.38
2023-04-15T23:42:26.328Z,100124.27
2023-04-15T23:44:38.893Z,100127.61
2023-04-15T23:46:51.546Z,100129.31
2023-04-15T23:49:04.150Z,100132.13
2023-04-15T23:51:16.763Z,100130.05
2023-04-15T23:53:32.210Z,100131.05
2023-04-15T23:55:44.745Z,100133.80
2023-04-15T23:57:57.319Z,100130.80
